createdAt,value
2023-05-08T00:04:45.433Z,102010.57
2023-05-08T00:09:48.427Z,102011.92
2023-05-08T00:14:51.270Z,102013.48
2023-05-08T00:19:54.149Z,102017.73
2023-05-08T00:24:57.055Z,102018.02
2023-05-08T00:30:00.149Z,102021.56
2023-05-08T00:35:03.153Z,102022.15
2023-05-08T00:40:10.037Z,102023.66
2023-05-08T00:45:13.056Z,102024.58
2023-05-08T00:50:16.108Z,102027.33
2023-05-08T00:55:19.907Z,102027.68
2023-05-08T01:00:23.324Z,102032.53
2023-05-08T01:05:30.188Z,102041.45
2023-05-08T01:10:53.966Z,102046.77
2023-05-08T01:16:16.961Z,102053.83
2023-05-08T01:21:34.879Z,102055.54
2023-05-08T01:27:34.005Z,102058.33
2023-05-08T01:32:39.612Z,102060.94
2023-05-08T01:37:59.609Z,102059.09
2023-05-08T01:43:21.160Z,102063.98
2023-05-08T01:48:35.431Z,102059.95
2023-05-08T01:53:42.525Z,102065.52
2023-05-08T01:58:45.628Z,102070.05
2023-05-08T02:03:48.618Z,102070.77
2023-05-08T02:08:51.473Z,102072.97
2023-05-08T02:13:54.296Z,102073.98
2023-05-08T02:18:58.931Z,102073.20
2023-05-08T02:24:01.715Z,102076.08
2023-05-08T02:29:04.704Z,102084.56
2023-05-08T02:34:08.266Z,102085.91
2023-05-08T02:39:12.166Z,102086.35
2023-05-08T02:44:15.073Z,102085.62
2023-05-08T02:49:38.250Z,102089.77
2023-05-08T02:55:08.630Z,102088.59
2023-05-08T03:00:41.486Z,102085.92
2023-05-08T03:05:50.658Z,102086.27
2023-05-08T03:10:56.020Z,102085.84
2023-05-08T03:16:00.922Z,102090.81
2023-05-08T03:21:04.104Z,102090.09
2023-05-08T03:26:07.222Z,102092.74
2023-05-08T03:31:10.319Z,102097.38
2023-05-08T03:36:14.507Z,102102.14
2023-05-08T03:41:17.333Z,102104.08
2023-05-08T03:46:20.221Z,102106.48
2023-05-08T03:51:24.389Z,102113.73
2023-05-08T03:56:28.229Z,102112.95
2023-05-08T04:02:17.895Z,102116.41
2023-05-08T04:07:37.358Z,102114.52
2023-05-08T04:13:01.753Z,102109.35
2023-05-08T04:18:10.889Z,102114.84
2023-05-08T04:23:19.601Z,102122.93
2023-05-08T04:28:22.816Z,102137.06
2023-05-08T04:33:25.760Z,102146.90
2023-05-08T04:38:28.699Z,102145.67
2023-05-08T04:43:31.694Z,102149.98
2023-05-08T04:48:34.669Z,102151.69
2023-05-08T04:53:37.556Z,102162.30
2023-05-08T04:58:40.501Z,102164.41
2023-05-08T05:03:43.490Z,102169.45
2023-05-08T05:08:46.599Z,102175.08
2023-05-08T05:13:49.409Z,102171.86
2023-05-08T05:18:52.293Z,102172.12
2023-05-08T05:23:55.379Z,102176.66
2023-05-08T05:28:58.511Z,102179.91
2023-05-08T05:34:01.417Z,102177.31
2023-05-08T05:39:04.275Z,102184.61
2023-05-08T05:44:07.206Z,102184.81
2023-05-08T05:49:10.104Z,102181.85
2023-05-08T05:54:14.583Z,102186.72
2023-05-08T05:59:17.459Z,102186.33
2023-05-08T06:04:20.379Z,102192.20
2023-05-08T06:09:23.331Z,102193.86
2023-05-08T06:14:26.382Z,102194.31
2023-05-08T06:19:29.407Z,102197.64
2023-05-08T06:24:32.291Z,102197.55
2023-05-08T06:29:35.098Z,102200.02
2023-05-08T06:34:37.951Z,102195.70
2023-05-08T06:39:40.801Z,102194.02
2023-05-08T06:44:43.682Z,102189.15
2023-05-08T06:49:46.569Z,102189.90
2023-05-08T06:54:49.467Z,102190.52
2023-05-08T06:59:52.584Z,102194.30
2023-05-08T07:04:55.476Z,102184.72
2023-05-08T07:09:58.515Z,102181.98
2023-05-08T07:15:07.812Z,102183.25
2023-05-08T07:20:17.366Z,102186.10
2023-05-08T07:25:20.310Z,102189.66
2023-05-08T07:30:23.261Z,102187.64
2023-05-08T07:35:26.190Z,102186.36
2023-05-08T07:40:29.091Z,102188.64
2023-05-08T07:45:32.037Z,102183.88
2023-05-08T07:50:35.715Z,102188.74
2023-05-08T07:55:38.923Z,102193.31
2023-05-08T08:00:41.915Z,102192.38
2023-05-08T08:05:44.806Z,102184.66
2023-05-08T08:10:47.665Z,102181.95
2023-05-08T08:15:52.121Z,102183.77
2023-05-08T08:20:55.083Z,102184.92
2023-05-08T08:25:57.953Z,102184.57
2023-05-08T08:31:00.922Z,102182.35
2023-05-08T08:36:04.208Z,102176.05
2023-05-08T08:41:07.097Z,102170.02
2023-05-08T08:46:13.309Z,102167.42
2023-05-08T08:51:37.471Z,102167.58
2023-05-08T08:56:43.076Z,102163.21
2023-05-08T09:01:48.470Z,102161.28
2023-05-08T09:06:51.373Z,102160.25
2023-05-08T09:11:54.298Z,102149.06
2023-05-08T09:16:57.230Z,102153.54
2023-05-08T09:22:03.030Z,102151.38
2023-05-08T09:27:20.821Z,102149.02
2023-05-08T09:32:23.638Z,102147.06
2023-05-08T09:37:27.274Z,102144.02
2023-05-08T09:42:38.992Z,102143.20
2023-05-08T09:47:48.215Z,102143.56
2023-05-08T09:52:51.132Z,102138.22
2023-05-08T09:57:59.077Z,102133.47
2023-05-08T10:03:03.050Z,102133.94
2023-05-08T10:08:35.244Z,102131.05
2023-05-08T10:13:38.006Z,102124.80
2023-05-08T10:18:40.892Z,102122.56
2023-05-08T10:23:44.731Z,102117.73
2023-05-08T10:29:04.259Z,102118.77
2023-05-08T10:34:09.002Z,102119.33
2023-05-08T10:39:11.834Z,102116.13
2023-05-08T10:44:14.761Z,102114.77
2023-05-08T10:49:55.440Z,102114.30
2023-05-08T10:55:04.526Z,102107.70
2023-05-08T11:00:08.602Z,102108.21
2023-05-08T11:05:18.317Z,102102.59
2023-05-08T11:10:21.486Z,102100.38
2023-05-08T11:15:53.762Z,102097.73
2023-05-08T11:20:58.185Z,102093.73
2023-05-08T11:26:05.470Z,102080.33
2023-05-08T11:31:08.734Z,102087.48
2023-05-08T11:36:23.108Z,102083.48
2023-05-08T11:41:25.956Z,102075.45
2023-05-08T11:46:33.436Z,102075.76
2023-05-08T11:51:36.438Z,102072.90
2023-05-08T11:56:39.218Z,102081.48
2023-05-08T12:01:46.269Z,102067.91
2023-05-08T12:06:51.533Z,102064.20
2023-05-08T12:11:57.181Z,102060.30
2023-05-08T12:17:02.403Z,102057.59
2023-05-08T12:22:05.391Z,102055.22
2023-05-08T12:27:09.421Z,102049.48
2023-05-08T12:32:12.281Z,102048.79
2023-05-08T12:37:27.779Z,102039.36
2023-05-08T12:42:47.849Z,102033.16
2023-05-08T12:47:52.334Z,102032.81
2023-05-08T12:52:55.231Z,102031.89
2023-05-08T12:58:16.046Z,102027.46
2023-05-08T13:03:28.184Z,102022.23
2023-05-08T13:08:35.235Z,102013.20
2023-05-08T13:13:38.076Z,102010.41
2023-05-08T13:18:40.849Z,102005.04
2023-05-08T13:23:43.633Z,102001.03
2023-05-08T13:28:46.349Z,101999.77
2023-05-08T13:33:49.143Z,101994.04
2023-05-08T13:38:54.814Z,101990.31
2023-05-08T13:43:57.685Z,101986.00
2023-05-08T13:49:00.391Z,101974.33
2023-05-08T13:54:03.272Z,101969.93
2023-05-08T13:59:05.979Z,101964.27
2023-05-08T14:04:08.939Z,101968.05
2023-05-08T14:09:11.849Z,101966.58
2023-05-08T14:14:14.602Z,101970.70
2023-05-08T14:19:20.399Z,101965.83
2023-05-08T14:24:23.115Z,101965.23
2023-05-08T14:29:26.090Z,101958.47
2023-05-08T14:34:28.878Z,101956.55
2023-05-08T14:39:31.744Z,101951.75
2023-05-08T14:44:34.496Z,101948.45
2023-05-08T14:55:00.397Z,101948.48
2023-05-08T15:00:04.257Z,101951.42
2023-05-08T15:05:11.004Z,101947.52
2023-05-08T15:10:20.262Z,101946.83
2023-05-08T15:15:23.206Z,101945.51
2023-05-08T15:20:26.045Z,101947.47
2023-05-08T15:25:28.831Z,101943.58
2023-05-08T15:30:32.249Z,101945.95
2023-05-08T15:35:35.655Z,101949.90
2023-05-08T15:40:39.033Z,101951.10
2023-05-08T15:45:42.011Z,101947.67
2023-05-08T15:50:44.861Z,101945.53
2023-05-08T15:55:47.724Z,101943.11
2023-05-08T16:00:50.570Z,101937.98
2023-05-08T16:05:53.361Z,101932.84
2023-05-08T16:10:56.202Z,101930.42
2023-05-08T16:16:07.203Z,101930.63
2023-05-08T16:21:10.622Z,101928.64
2023-05-08T16:26:14.120Z,101920.35
2023-05-08T16:31:17.072Z,101922.15
2023-05-08T16:36:20.008Z,101925.34
2023-05-08T16:41:23.152Z,101924.09
2023-05-08T16:46:30.308Z,101929.65
2023-05-08T16:51:33.450Z,101930.67
2023-05-08T16:56:36.256Z,101928.73
2023-05-08T17:01:39.012Z,101932.23
2023-05-08T17:06:41.829Z,101937.27
2023-05-08T17:11:44.596Z,101942.95
2023-05-08T17:16:47.399Z,101947.14
2023-05-08T17:21:50.250Z,101942.88
2023-05-08T17:26:53.069Z,101942.38
2023-05-08T17:31:55.826Z,101943.27
2023-05-08T17:36:58.585Z,101940.67
2023-05-08T17:42:01.313Z,101944.09
2023-05-08T17:47:04.385Z,101945.32
2023-05-08T17:52:07.402Z,101951.05
2023-05-08T17:57:10.306Z,101951.44
2023-05-08T18:02:13.235Z,101958.67
2023-05-08T18:07:16.051Z,101961.25
2023-05-08T18:12:18.815Z,101961.63
2023-05-08T18:17:22.750Z,101963.94
2023-05-08T18:22:26.258Z,101966.36
2023-05-08T18:27:29.019Z,101973.34
2023-05-08T18:32:31.845Z,101982.35
2023-05-08T18:37:34.923Z,101985.78
2023-05-08T18:42:38.010Z,101995.41
2023-05-08T18:47:41.058Z,101999.75
2023-05-08T18:52:43.898Z,102003.95
2023-05-08T18:57:46.881Z,102006.02
2023-05-08T19:02:50.074Z,102010.75
2023-05-08T19:07:53.335Z,102017.91
2023-05-08T19:12:56.238Z,102021.45
2023-05-08T19:17:59.214Z,102018.67
2023-05-08T19:23:02.132Z,102015.41
2023-05-08T19:28:05.420Z,102015.16
2023-05-08T19:33:08.225Z,102016.16
2023-05-08T19:38:10.992Z,102017.03
2023-05-08T19:43:13.759Z,102017.30
2023-05-08T19:48:18.212Z,102012.88
2023-05-08T19:53:22.708Z,102016.20
2023-05-08T19:58:25.718Z,102010.08
2023-05-08T20:03:28.711Z,102007.66
2023-05-08T20:08:31.693Z,102004.20
2023-05-08T20:13:34.855Z,102002.48
2023-05-08T20:18:37.668Z,101999.14
2023-05-08T20:23:41.302Z,101998.77
2023-05-08T20:28:44.191Z,101999.63
2023-05-08T20:33:47.210Z,102003.00
2023-05-08T20:38:49.932Z,102003.77
2023-05-08T20:43:52.769Z,102005.52
2023-05-08T20:48:55.578Z,102004.60
2023-05-08T20:53:58.384Z,102006.23
2023-05-08T20:59:02.903Z,102004.75
2023-05-08T21:04:05.610Z,102001.75
2023-05-08T21:09:08.670Z,102001.29
2023-05-08T21:14:11.496Z,101999.98
2023-05-08T21:19:17.399Z,102000.81
2023-05-08T21:24:20.478Z,101998.70
2023-05-08T21:29:23.364Z,101996.05
2023-05-08T21:34:27.269Z,101997.60
2023-05-08T21:39:30.058Z,101993.77
2023-05-08T21:44:33.214Z,101994.27
2023-05-08T21:49:36.013Z,101994.63
2023-05-08T21:54:38.726Z,101995.65
2023-05-08T21:59:41.552Z,101994.61
2023-05-08T22:04:44.469Z,101992.27
2023-05-08T22:09:47.337Z,101994.80
2023-05-08T22:14:50.190Z,101989.19
2023-05-08T22:19:52.941Z,101995.08
2023-05-08T22:24:56.329Z,101997.98
2023-05-08T22:30:02.189Z,101995.11
2023-05-08T22:35:06.784Z,101989.95
2023-05-08T22:40:10.661Z,101987.56
2023-05-08T22:45:14.254Z,101983.00
2023-05-08T22:50:17.500Z,101982.95
2023-05-08T22:55:20.631Z,101984.60
2023-05-08T23:00:23.590Z,101990.15
2023-05-08T23:05:26.430Z,101991.23
2023-05-08T23:10:29.283Z,101987.95
2023-05-08T23:15:32.024Z,101986.17
2023-05-08T23:20:34.757Z,101990.92
2023-05-08T23:25:37.659Z,101989.02
2023-05-08T23:30:40.426Z,101986.55
2023-05-08T23:35:43.216Z,101989.39
2023-05-08T23:40:46.111Z,101986.45
2023-05-08T23:45:49.194Z,101983.29
2023-05-08T23:50:52.086Z,101983.48
2023-05-08T23:55:55.000Z,101985.03
